createdAt,value
2017-07-24T00:00:44.933Z,0
2017-07-24T00:01:44.316Z,0
2017-07-24T00:02:44.894Z,0
2017-07-24T00:03:44.872Z,0
2017-07-24T00:04:44.851Z,0
2017-07-24T00:05:44.829Z,0
2017-07-24T00:06:44.815Z,0
2017-07-24T00:07:44.789Z,0
2017-07-24T00:08:44.766Z,0
2017-07-24T00:09:44.462Z,0
2017-07-24T00:10:44.726Z,0
2017-07-24T00:11:44.738Z,0
2017-07-24T00:12:44.749Z,0
2017-07-24T00:13:44.364Z,0
2017-07-24T00:14:44.370Z,0
2017-07-24T00:15:44.621Z,0
2017-07-24T00:16:44.593Z,0
2017-07-24T00:17:44.587Z,0
2017-07-24T00:18:44.556Z,0
2017-07-24T00:19:44.562Z,0
2017-07-24T00:20:44.509Z,0
2017-07-24T00:21:44.504Z,0
2017-07-24T00:22:44.173Z,0
2017-07-24T00:23:44.159Z,0
2017-07-24T00:24:44.426Z,0
2017-07-24T00:25:44.407Z,0
2017-07-24T00:26:44.388Z,0
2017-07-24T00:27:44.369Z,0
2017-07-24T00:28:44.346Z,0
2017-07-24T00:29:44.324Z,0
2017-07-24T00:30:44.309Z,0
2017-07-24T00:31:43.986Z,0
2017-07-24T00:32:44.265Z,0
2017-07-24T00:33:44.238Z,0
2017-07-24T00:34:44.225Z,0
2017-07-24T00:35:43.902Z,0
2017-07-24T00:36:44.178Z,0
2017-07-24T00:37:44.155Z,0
2017-07-24T00:38:44.136Z,0
2017-07-24T00:39:44.121Z,0
2017-07-24T00:40:44.094Z,0
2017-07-24T00:41:44.073Z,0
2017-07-24T00:42:44.053Z,0
2017-07-24T00:43:44.089Z,0
2017-07-24T00:44:44.008Z,0
2017-07-24T00:45:43.988Z,0
2017-07-24T00:46:43.965Z,0
2017-07-24T00:47:43.946Z,0
2017-07-24T00:48:43.921Z,0
2017-07-24T00:49:43.907Z,0
2017-07-24T00:50:43.879Z,0
2017-07-24T00:51:43.861Z,0
2017-07-24T00:52:43.841Z,0
2017-07-24T00:53:43.523Z,0
2017-07-24T00:54:43.839Z,0
2017-07-24T00:55:43.781Z,0
2017-07-24T00:56:43.757Z,0
2017-07-24T00:57:43.738Z,0
2017-07-24T00:58:43.713Z,0
2017-07-24T00:59:43.396Z,0
2017-07-24T01:00:43.670Z,0
2017-07-24T01:01:43.649Z,0
2017-07-24T01:02:43.635Z,0
2017-07-24T01:03:43.609Z,0
2017-07-24T01:04:43.595Z,0
2017-07-24T01:05:43.273Z,0
2017-07-24T01:06:43.545Z,0
2017-07-24T01:07:43.225Z,0
2017-07-24T01:08:43.502Z,0
2017-07-24T01:09:43.191Z,0
2017-07-24T01:10:43.461Z,0
2017-07-24T01:11:43.604Z,0
2017-07-24T01:12:43.417Z,0
2017-07-24T01:13:43.398Z,0
2017-07-24T01:14:43.372Z,0
2017-07-24T01:15:43.352Z,0
2017-07-24T01:16:43.334Z,0
2017-07-24T01:17:43.013Z,0
2017-07-24T01:18:43.321Z,0
2017-07-24T01:19:43.267Z,0
2017-07-24T01:20:43.248Z,0
2017-07-24T01:21:43.229Z,0
2017-07-24T01:22:43.211Z,0
2017-07-24T01:23:43.189Z,0
2017-07-24T01:24:43.168Z,0
2017-07-24T01:25:43.151Z,0
2017-07-24T01:26:43.123Z,0
2017-07-24T01:27:43.102Z,0
2017-07-24T01:28:43.087Z,0
2017-07-24T01:29:43.064Z,0
2017-07-24T01:30:43.038Z,0
2017-07-24T01:31:43.019Z,0
2017-07-24T01:32:43.009Z,0
2017-07-24T01:33:42.976Z,0
2017-07-24T01:34:42.661Z,0
2017-07-24T01:35:42.932Z,0
2017-07-24T01:36:42.952Z,0
2017-07-24T01:37:42.893Z,0
2017-07-24T01:38:42.877Z,0
2017-07-24T01:39:42.854Z,0
2017-07-24T01:40:42.531Z,0
2017-07-24T01:41:42.804Z,0
2017-07-24T01:42:42.794Z,0
2017-07-24T01:43:42.766Z,0
2017-07-24T01:44:42.744Z,0
2017-07-24T01:45:42.723Z,0
2017-07-24T01:46:42.698Z,0
2017-07-24T01:47:42.687Z,0
2017-07-24T01:48:42.361Z,0
2017-07-24T01:49:42.638Z,0
2017-07-24T01:50:42.620Z,0
2017-07-24T01:51:42.592Z,0
2017-07-24T01:52:42.629Z,0
2017-07-24T01:53:42.555Z,0
2017-07-24T01:54:42.534Z,0
2017-07-24T01:55:42.505Z,0
2017-07-24T01:56:42.494Z,0
2017-07-24T01:57:42.469Z,0
2017-07-24T01:58:42.454Z,0
2017-07-24T01:59:42.433Z,0
2017-07-24T02:00:42.407Z,0
2017-07-24T02:01:42.383Z,0
2017-07-24T02:02:42.357Z,0
2017-07-24T02:03:42.344Z,0
2017-07-24T02:04:42.318Z,0
2017-07-24T02:05:42.009Z,0
2017-07-24T02:06:42.284Z,0
2017-07-24T02:07:41.957Z,0
2017-07-24T02:08:41.936Z,0
2017-07-24T02:09:41.921Z,0
2017-07-24T02:10:42.245Z,0
2017-07-24T02:11:42.172Z,0
2017-07-24T02:12:42.146Z,0
2017-07-24T02:13:41.537Z,0
2017-07-24T02:14:42.111Z,0
2017-07-24T02:15:42.090Z,0
2017-07-24T02:16:42.068Z,0
2017-07-24T02:17:42.043Z,0
2017-07-24T02:18:42.023Z,0
2017-07-24T02:19:42.007Z,0
2017-07-24T02:20:41.982Z,0
2017-07-24T02:21:41.961Z,0
2017-07-24T02:22:41.944Z,0
2017-07-24T02:23:41.923Z,0
2017-07-24T02:24:41.898Z,0
2017-07-24T02:25:41.885Z,0
2017-07-24T02:26:41.558Z,0
2017-07-24T02:27:41.835Z,0
2017-07-24T02:28:41.812Z,0
2017-07-24T02:29:41.793Z,0
2017-07-24T02:30:41.774Z,0
2017-07-24T02:31:41.751Z,0
2017-07-24T02:32:41.747Z,0
2017-07-24T02:33:41.712Z,0
2017-07-24T02:34:41.685Z,0
2017-07-24T02:35:41.667Z,0
2017-07-24T02:36:41.345Z,0
2017-07-24T02:37:41.031Z,0
2017-07-24T02:38:41.600Z,0
2017-07-24T02:39:41.281Z,0
2017-07-24T02:40:41.561Z,0
2017-07-24T02:41:41.558Z,0
2017-07-24T02:42:41.517Z,0
2017-07-24T02:43:41.494Z,0
2017-07-24T02:44:41.473Z,0
2017-07-24T02:45:41.457Z,0
2017-07-24T02:46:41.433Z,0
2017-07-24T02:47:41.116Z,0
2017-07-24T02:48:41.390Z,0
2017-07-24T02:49:41.367Z,0
2017-07-24T02:50:41.356Z,0
2017-07-24T02:51:41.330Z,0
2017-07-24T02:52:41.010Z,0
2017-07-24T02:53:41.290Z,0
2017-07-24T02:54:41.263Z,0
2017-07-24T02:55:41.238Z,0
2017-07-24T02:56:41.220Z,0
2017-07-24T02:57:41.197Z,0
2017-07-24T02:58:41.175Z,0
2017-07-24T02:59:41.188Z,0
2017-07-24T03:00:41.135Z,0
2017-07-24T03:01:40.518Z,0
2017-07-24T03:02:41.086Z,0
2017-07-24T03:03:41.108Z,0
2017-07-24T03:04:40.753Z,0
2017-07-24T03:05:40.738Z,0
2017-07-24T03:06:41.007Z,0
2017-07-24T03:07:40.687Z,0
2017-07-24T03:08:40.960Z,0
2017-07-24T03:09:40.943Z,0
2017-07-24T03:10:40.917Z,4
2017-07-24T03:11:40.891Z,4
2017-07-24T03:12:40.879Z,4
2017-07-24T03:13:40.853Z,0
2017-07-24T03:14:40.837Z,4
2017-07-24T03:15:40.812Z,4
2017-07-24T03:16:40.797Z,4
2017-07-24T03:17:40.768Z,4
2017-07-24T03:18:40.754Z,8
2017-07-24T03:19:40.722Z,8
2017-07-24T03:20:40.704Z,8
2017-07-24T03:21:40.676Z,8
2017-07-24T03:22:40.673Z,12
2017-07-24T03:23:40.636Z,12
2017-07-24T03:24:40.619Z,16
2017-07-24T03:25:40.590Z,16
2017-07-24T03:26:40.576Z,20
2017-07-24T03:27:40.553Z,20
2017-07-24T03:28:40.230Z,20
2017-07-24T03:29:40.501Z,24
2017-07-24T03:30:40.498Z,28
2017-07-24T03:31:40.481Z,28
2017-07-24T03:32:40.142Z,32
2017-07-24T03:33:40.417Z,36
2017-07-24T03:34:40.394Z,40
2017-07-24T03:35:40.085Z,40
2017-07-24T03:36:40.347Z,44
2017-07-24T03:37:40.330Z,48
2017-07-24T03:38:40.307Z,52
2017-07-24T03:39:40.289Z,56
2017-07-24T03:40:40.264Z,60
2017-07-24T03:41:40.239Z,64
2017-07-24T03:42:40.218Z,72
2017-07-24T03:43:40.198Z,76
2017-07-24T03:44:40.174Z,80
2017-07-24T03:45:40.153Z,88
2017-07-24T03:46:40.131Z,96
2017-07-24T03:47:40.112Z,96
2017-07-24T03:48:40.090Z,104
2017-07-24T03:49:39.770Z,116
2017-07-24T03:50:40.053Z,120
2017-07-24T03:51:39.728Z,128
2017-07-24T03:52:40.003Z,136
2017-07-24T03:53:39.981Z,144
2017-07-24T03:54:39.953Z,152
2017-07-24T03:55:39.926Z,164
2017-07-24T03:56:39.907Z,172
2017-07-24T03:57:39.895Z,188
2017-07-24T03:58:39.566Z,204
2017-07-24T03:59:39.850Z,228
2017-07-24T04:00:39.524Z,248
2017-07-24T04:01:39.800Z,264
2017-07-24T04:02:39.775Z,280
2017-07-24T04:03:39.454Z,300
2017-07-24T04:04:39.732Z,312
2017-07-24T04:05:39.757Z,328
2017-07-24T04:06:39.393Z,348
2017-07-24T04:07:39.661Z,360
2017-07-24T04:08:39.356Z,376
2017-07-24T04:09:39.322Z,392
2017-07-24T04:10:39.365Z,408
2017-07-24T04:11:39.577Z,428
2017-07-24T04:12:39.559Z,456
2017-07-24T04:13:39.230Z,492
2017-07-24T04:14:39.525Z,528
2017-07-24T04:15:39.486Z,572
2017-07-24T04:16:39.460Z,612
2017-07-24T04:17:39.465Z,648
2017-07-24T04:18:39.422Z,688
2017-07-24T04:19:39.402Z,732
2017-07-24T04:20:39.090Z,792
2017-07-24T04:21:39.357Z,872
2017-07-24T04:22:39.331Z,972
2017-07-24T04:23:39.314Z,1108
2017-07-24T04:24:38.986Z,1292
2017-07-24T04:25:39.259Z,1492
2017-07-24T04:26:39.277Z,1656
2017-07-24T04:27:39.211Z,1760
2017-07-24T04:28:39.194Z,1808
2017-07-24T04:29:39.174Z,1824
2017-07-24T04:30:39.145Z,1820
2017-07-24T04:31:39.131Z,1792
2017-07-24T04:32:39.106Z,1748
2017-07-24T04:33:39.079Z,1692
2017-07-24T04:34:39.067Z,1676
2017-07-24T04:35:39.037Z,1716
2017-07-24T04:36:39.023Z,1812
2017-07-24T04:37:38.996Z,1932
2017-07-24T04:38:38.993Z,2040
2017-07-24T04:39:38.960Z,2100
2017-07-24T04:40:38.951Z,2104
2017-07-24T04:41:38.908Z,2060
2017-07-24T04:42:38.589Z,1988
2017-07-24T04:43:38.560Z,1920
2017-07-24T04:44:38.845Z,1900
2017-07-24T04:45:38.818Z,1980
2017-07-24T04:46:38.804Z,2184
2017-07-24T04:47:38.774Z,2484
2017-07-24T04:48:38.750Z,2768
2017-07-24T04:49:38.744Z,2948
2017-07-24T04:50:38.704Z,3016
2017-07-24T04:51:38.693Z,3036
2017-07-24T04:52:38.663Z,3020
2017-07-24T04:53:38.677Z,2956
2017-07-24T04:54:38.618Z,2820
2017-07-24T04:55:38.598Z,2636
2017-07-24T04:56:38.571Z,2432
2017-07-24T04:57:38.546Z,2252
2017-07-24T04:58:38.527Z,2112
2017-07-24T04:59:38.211Z,2000
2017-07-24T05:00:38.488Z,1924
2017-07-24T05:01:38.457Z,1864
2017-07-24T05:02:37.855Z,1820
2017-07-24T05:03:38.126Z,1784
2017-07-24T05:04:38.422Z,1744
2017-07-24T05:05:38.400Z,1728
2017-07-24T05:06:38.351Z,1736
2017-07-24T05:07:38.043Z,1768
2017-07-24T05:08:38.306Z,1792
2017-07-24T05:09:38.609Z,1792
2017-07-24T05:10:38.263Z,1768
2017-07-24T05:11:38.238Z,1748
2017-07-24T05:12:38.230Z,1752
2017-07-24T05:13:38.194Z,1768
2017-07-24T05:14:38.176Z,1776
2017-07-24T05:15:38.153Z,1772
2017-07-24T05:16:37.833Z,1764
2017-07-24T05:17:38.110Z,1752
2017-07-24T05:18:38.095Z,1740
2017-07-24T05:19:37.470Z,1728
2017-07-24T05:20:38.044Z,1728
2017-07-24T05:21:38.034Z,1744
2017-07-24T05:22:37.994Z,1804
2017-07-24T05:23:38.001Z,1896
2017-07-24T05:24:37.957Z,2012
2017-07-24T05:25:37.934Z,2140
2017-07-24T05:26:37.609Z,2256
2017-07-24T05:27:37.883Z,2360
2017-07-24T05:28:37.591Z,2448
2017-07-24T05:29:37.841Z,2516
2017-07-24T05:30:37.529Z,2540
2017-07-24T05:31:37.503Z,2544
2017-07-24T05:32:37.484Z,2544
2017-07-24T05:33:37.764Z,2572
2017-07-24T05:34:37.738Z,2648
2017-07-24T05:35:37.730Z,2764
2017-07-24T05:36:37.686Z,2924
2017-07-24T05:37:37.680Z,3088
2017-07-24T05:38:37.650Z,3216
2017-07-24T05:39:37.628Z,3296
2017-07-24T05:40:37.597Z,3316
2017-07-24T05:41:37.579Z,3312
2017-07-24T05:42:37.264Z,3308
2017-07-24T05:43:37.265Z,3336
2017-07-24T05:44:37.510Z,3396
2017-07-24T05:45:37.492Z,3472
2017-07-24T05:46:37.468Z,3580
2017-07-24T05:47:37.448Z,3736
2017-07-24T05:48:37.429Z,3968
2017-07-24T05:49:37.406Z,4264
2017-07-24T05:50:37.381Z,4580
2017-07-24T05:51:37.361Z,4892
2017-07-24T05:52:37.336Z,5132
2017-07-24T05:53:37.318Z,5280
2017-07-24T05:54:37.298Z,5352
2017-07-24T05:55:37.277Z,5396
2017-07-24T05:56:37.249Z,5432
2017-07-24T05:57:37.230Z,5460
2017-07-24T05:58:37.216Z,5492
2017-07-24T05:59:37.183Z,5532
2017-07-24T06:00:36.574Z,5584
2017-07-24T06:01:37.142Z,5672
2017-07-24T06:02:37.132Z,5796
2017-07-24T06:03:36.806Z,5896
2017-07-24T06:04:37.080Z,5940
2017-07-24T06:05:37.054Z,5904
2017-07-24T06:06:37.033Z,5816
2017-07-24T06:07:37.015Z,5732
2017-07-24T06:08:36.695Z,5680
2017-07-24T06:09:36.964Z,5660
2017-07-24T06:10:36.352Z,5688
2017-07-24T06:11:36.624Z,5744
2017-07-24T06:12:36.602Z,5836
2017-07-24T06:13:36.584Z,5960
2017-07-24T06:14:36.273Z,6068
2017-07-24T06:15:36.249Z,6148
2017-07-24T06:16:36.523Z,6172
2017-07-24T06:17:36.793Z,6176
2017-07-24T06:18:36.482Z,6172
2017-07-24T06:19:36.749Z,6176
2017-07-24T06:20:36.733Z,6180
2017-07-24T06:21:36.413Z,6188
2017-07-24T06:22:36.686Z,6164
2017-07-24T06:23:36.373Z,6128
2017-07-24T06:24:36.637Z,6072
2017-07-24T06:25:36.635Z,6032
2017-07-24T06:26:36.605Z,6032
2017-07-24T06:27:36.577Z,6072
2017-07-24T06:28:36.560Z,6168
2017-07-24T06:29:36.534Z,6324
2017-07-24T06:30:36.517Z,6508
2017-07-24T06:31:36.493Z,6672
2017-07-24T06:32:36.476Z,6756
2017-07-24T06:33:36.455Z,6996
2017-07-24T06:34:36.433Z,7184
2017-07-24T06:35:36.406Z,7276
2017-07-24T06:36:36.391Z,7416
2017-07-24T06:37:36.368Z,7348
2017-07-24T06:38:36.345Z,7396
2017-07-24T06:39:36.322Z,7492
2017-07-24T06:40:36.298Z,7564
2017-07-24T06:41:35.994Z,7556
2017-07-24T06:42:36.267Z,7760
2017-07-24T06:43:36.233Z,7724
2017-07-24T06:44:37.076Z,7464
2017-07-24T06:45:36.200Z,7544
2017-07-24T06:46:36.170Z,7528
2017-07-24T06:47:36.158Z,7520
2017-07-24T06:48:36.136Z,7724
2017-07-24T06:49:36.111Z,7668
2017-07-24T06:50:36.093Z,7268
2017-07-24T06:51:35.773Z,7004
2017-07-24T06:52:36.055Z,7488
2017-07-24T06:53:36.036Z,7992
2017-07-24T06:54:36.007Z,8264
2017-07-24T06:55:35.695Z,8428
2017-07-24T06:56:35.965Z,8516
2017-07-24T06:57:35.942Z,8616
2017-07-24T06:58:35.920Z,8780
2017-07-24T06:59:35.898Z,8984
2017-07-24T07:00:35.587Z,9108
2017-07-24T07:01:35.864Z,9120
2017-07-24T07:02:35.554Z,8832
2017-07-24T07:03:35.815Z,8968
2017-07-24T07:04:35.815Z,9184
2017-07-24T07:05:35.782Z,9044
2017-07-24T07:06:35.748Z,8600
2017-07-24T07:07:35.732Z,8612
2017-07-24T07:08:35.413Z,8912
2017-07-24T07:09:35.694Z,9108
2017-07-24T07:10:35.078Z,9172
2017-07-24T07:11:35.751Z,8988
2017-07-24T07:12:35.658Z,8896
2017-07-24T07:13:35.357Z,8960
2017-07-24T07:14:34.995Z,9000
2017-07-24T07:15:35.736Z,9064
2017-07-24T07:16:35.870Z,9136
2017-07-24T07:17:36.312Z,9144
2017-07-24T07:18:37.012Z,9276
2017-07-24T07:19:36.756Z,9344
2017-07-24T07:20:37.574Z,9244
2017-07-24T07:21:37.741Z,9352
2017-07-24T07:22:35.688Z,9336
2017-07-24T07:23:35.109Z,9320
2017-07-24T07:24:35.375Z,9292
2017-07-24T07:25:35.064Z,8932
2017-07-24T07:26:35.340Z,8108
2017-07-24T07:27:35.323Z,8276
2017-07-24T07:28:35.408Z,9048
2017-07-24T07:29:35.290Z,9392
2017-07-24T07:30:36.016Z,9296
2017-07-24T07:31:34.937Z,9108
2017-07-24T07:32:35.217Z,8920
2017-07-24T07:33:35.192Z,8948
2017-07-24T07:34:34.575Z,8788
2017-07-24T07:35:35.149Z,8584
2017-07-24T07:36:35.129Z,9064
2017-07-24T07:37:35.126Z,9520
2017-07-24T07:38:35.087Z,9608
2017-07-24T07:39:34.766Z,9220
2017-07-24T07:40:35.048Z,8996
2017-07-24T07:41:34.729Z,9028
2017-07-24T07:42:35.005Z,9012
2017-07-24T07:43:35.539Z,9292
2017-07-24T07:44:34.952Z,9336
2017-07-24T07:45:35.096Z,9512
2017-07-24T07:46:35.288Z,9516
2017-07-24T07:47:35.119Z,9160
2017-07-24T07:48:35.084Z,8868
2017-07-24T07:49:34.566Z,8912
2017-07-24T07:50:35.182Z,8876
2017-07-24T07:51:34.822Z,8676
2017-07-24T07:52:34.497Z,8612
2017-07-24T07:53:34.780Z,8612
2017-07-24T07:54:34.474Z,8568
2017-07-24T07:55:34.488Z,8500
2017-07-24T07:56:34.713Z,8668
2017-07-24T07:57:34.949Z,8952
2017-07-24T07:58:34.673Z,9240
2017-07-24T07:59:34.650Z,9512
2017-07-24T08:00:34.627Z,9624
2017-07-24T08:01:34.613Z,9636
2017-07-24T08:02:33.997Z,9624
2017-07-24T08:03:34.568Z,9688
2017-07-24T08:04:34.557Z,10012
2017-07-24T08:05:34.245Z,10508
2017-07-24T08:06:34.505Z,11128
2017-07-24T08:07:34.487Z,11872
2017-07-24T08:08:34.469Z,12444
2017-07-24T08:09:34.442Z,12644
2017-07-24T08:10:34.437Z,12924
2017-07-24T08:11:34.111Z,13256
2017-07-24T08:12:34.380Z,13496
2017-07-24T08:13:34.449Z,13652
2017-07-24T08:14:34.338Z,13856
2017-07-24T08:15:34.034Z,14064
2017-07-24T08:16:34.005Z,14324
2017-07-24T08:17:33.687Z,14704
2017-07-24T08:18:33.970Z,15176
2017-07-24T08:19:33.945Z,15580
2017-07-24T08:20:33.683Z,15956
2017-07-24T08:21:33.680Z,16352
2017-07-24T08:22:33.886Z,16512
2017-07-24T08:23:33.573Z,16584
2017-07-24T08:24:33.847Z,16568
2017-07-24T08:25:34.120Z,16332
2017-07-24T08:26:34.115Z,16276
2017-07-24T08:27:34.083Z,16312
2017-07-24T08:28:34.059Z,16348
2017-07-24T08:29:33.744Z,16280
2017-07-24T08:30:34.023Z,16420
2017-07-24T08:31:33.712Z,16620
2017-07-24T08:32:33.981Z,16784
2017-07-24T08:33:33.967Z,17040
2017-07-24T08:34:33.946Z,17136
2017-07-24T08:35:33.634Z,17568
2017-07-24T08:36:33.907Z,17728
2017-07-24T08:37:33.888Z,17728
2017-07-24T08:38:33.881Z,17792
2017-07-24T08:39:33.848Z,17984
2017-07-24T08:40:33.825Z,18240
2017-07-24T08:41:33.808Z,18400
2017-07-24T08:42:33.791Z,18272
2017-07-24T08:43:33.472Z,18048
2017-07-24T08:44:33.482Z,17696
2017-07-24T08:45:33.781Z,17048
2017-07-24T08:46:33.717Z,16508
2017-07-24T08:47:33.698Z,15752
2017-07-24T08:48:33.682Z,15216
2017-07-24T08:49:33.663Z,15020
2017-07-24T08:50:33.636Z,14908
2017-07-24T08:51:33.613Z,14956
2017-07-24T08:52:33.606Z,14884
2017-07-24T08:53:33.277Z,14464
2017-07-24T08:54:33.568Z,13772
2017-07-24T08:55:33.544Z,13444
2017-07-24T08:56:33.226Z,13408
2017-07-24T08:57:33.202Z,13828
2017-07-24T08:58:33.477Z,14396
2017-07-24T08:59:33.168Z,14740
2017-07-24T09:00:33.154Z,15112
2017-07-24T09:01:33.429Z,15404
2017-07-24T09:02:33.406Z,15520
2017-07-24T09:03:33.385Z,15360
2017-07-24T09:04:32.778Z,15460
2017-07-24T09:05:33.049Z,15800
2017-07-24T09:06:33.033Z,16168
2017-07-24T09:07:33.012Z,16340
2017-07-24T09:08:32.991Z,16628
2017-07-24T09:09:32.966Z,16964
2017-07-24T09:10:32.956Z,17116
2017-07-24T09:11:33.237Z,17664
2017-07-24T09:12:32.660Z,18080
2017-07-24T09:13:33.075Z,18496
2017-07-24T09:14:33.034Z,18912
2017-07-24T09:15:32.311Z,19200
2017-07-24T09:16:32.890Z,19424
2017-07-24T09:17:32.818Z,19488
2017-07-24T09:18:33.095Z,19360
2017-07-24T09:19:32.784Z,19232
2017-07-24T09:20:33.058Z,19584
2017-07-24T09:21:33.052Z,20160
2017-07-24T09:22:32.430Z,20608
2017-07-24T09:23:32.997Z,20960
2017-07-24T09:24:32.988Z,21248
2017-07-24T09:25:32.686Z,21504
2017-07-24T09:26:32.656Z,21824
2017-07-24T09:27:32.631Z,22144
2017-07-24T09:28:32.621Z,22624
2017-07-24T09:29:32.890Z,23296
2017-07-24T09:30:32.872Z,24160
2017-07-24T09:31:32.849Z,25280
2017-07-24T09:32:32.533Z,26592
2017-07-24T09:33:32.515Z,28064
2017-07-24T09:34:32.201Z,29568
2017-07-24T09:35:32.181Z,30720
2017-07-24T09:36:32.459Z,31584
2017-07-24T09:37:32.224Z,31744
2017-07-24T09:38:32.422Z,31616
2017-07-24T09:39:32.405Z,31488
2017-07-24T09:40:32.393Z,31456
2017-07-24T09:41:32.679Z,32032
2017-07-24T09:42:32.353Z,33152
2017-07-24T09:43:32.339Z,34656
2017-07-24T09:44:32.357Z,35904
2017-07-24T09:45:32.599Z,37440
2017-07-24T09:46:31.983Z,38592
2017-07-24T09:47:32.567Z,38272
2017-07-24T09:48:32.551Z,39328
2017-07-24T09:49:32.533Z,40224
2017-07-24T09:50:32.512Z,40992
2017-07-24T09:51:32.495Z,41664
2017-07-24T09:52:32.477Z,42080
2017-07-24T09:53:32.462Z,42080
2017-07-24T09:54:32.486Z,41696
2017-07-24T09:55:32.447Z,40704
2017-07-24T09:56:32.437Z,39232
2017-07-24T09:57:32.400Z,37856
2017-07-24T09:58:32.380Z,36704
2017-07-24T09:59:32.368Z,36064
2017-07-24T10:00:32.352Z,36000
2017-07-24T10:01:32.334Z,36160
2017-07-24T10:02:32.319Z,36448
2017-07-24T10:03:32.385Z,36928
2017-07-24T10:04:32.293Z,37312
2017-07-24T10:05:32.285Z,37696
2017-07-24T10:06:32.260Z,38048
2017-07-24T10:07:32.237Z,38848
2017-07-24T10:08:31.934Z,39776
2017-07-24T10:09:31.915Z,40640
2017-07-24T10:10:31.920Z,41152
2017-07-24T10:11:31.596Z,41312
2017-07-24T10:12:32.221Z,41472
2017-07-24T10:13:32.304Z,41504
2017-07-24T10:14:31.734Z,41696
2017-07-24T10:15:31.869Z,41952
2017-07-24T10:16:32.207Z,42592
2017-07-24T10:17:31.888Z,43392
2017-07-24T10:18:31.958Z,43360
2017-07-24T10:19:32.263Z,42752
2017-07-24T10:20:32.633Z,41952
2017-07-24T10:21:31.739Z,41312
2017-07-24T10:22:31.727Z,40800
2017-07-24T10:23:31.857Z,41024
2017-07-24T10:24:31.693Z,42080
2017-07-24T10:25:31.750Z,44160
2017-07-24T10:26:31.661Z,47936
2017-07-24T10:27:31.645Z,54912
2017-07-24T10:28:31.635Z,59136
2017-07-24T10:29:31.621Z,54528
2017-07-24T10:30:31.725Z,47712
2017-07-24T10:31:31.591Z,46240
2017-07-24T10:32:31.871Z,44192
2017-07-24T10:33:31.863Z,41344
2017-07-24T10:34:31.844Z,38592
2017-07-24T10:35:31.488Z,36256
2017-07-24T10:36:31.522Z,34080
2017-07-24T10:37:31.508Z,32128
2017-07-24T10:38:31.507Z,30624
2017-07-24T10:39:31.481Z,29344
2017-07-24T10:40:31.171Z,28576
2017-07-24T10:41:31.750Z,27232
2017-07-24T10:42:31.743Z,26144
2017-07-24T10:43:31.754Z,25472
2017-07-24T10:44:31.703Z,25216
2017-07-24T10:45:31.695Z,25184
2017-07-24T10:46:31.390Z,25056
2017-07-24T10:47:31.662Z,24800
2017-07-24T10:48:31.648Z,24416
2017-07-24T10:49:31.636Z,24192
2017-07-24T10:50:31.624Z,24096
2017-07-24T10:51:31.603Z,24320
2017-07-24T10:52:31.589Z,24448
2017-07-24T10:53:31.572Z,25024
2017-07-24T10:54:31.263Z,25440
2017-07-24T10:55:31.556Z,25600
2017-07-24T10:56:31.527Z,25760
2017-07-24T10:57:31.514Z,26080
2017-07-24T10:58:31.195Z,26752
2017-07-24T10:59:31.481Z,27968
2017-07-24T11:00:31.467Z,29440
2017-07-24T11:01:31.447Z,31360
2017-07-24T11:02:31.141Z,33344
2017-07-24T11:03:31.423Z,35360
2017-07-24T11:04:31.102Z,35744
2017-07-24T11:05:31.394Z,38432
2017-07-24T11:06:31.374Z,40064
2017-07-24T11:07:30.757Z,42208
2017-07-24T11:08:31.415Z,42976
2017-07-24T11:09:31.637Z,44256
2017-07-24T11:10:32.663Z,45792
2017-07-24T11:11:31.360Z,47328
2017-07-24T11:12:30.632Z,48544
2017-07-24T11:13:31.144Z,49088
2017-07-24T11:14:31.083Z,48992
2017-07-24T11:15:31.335Z,49120
2017-07-24T11:16:31.219Z,50400
2017-07-24T11:17:31.203Z,56672
2017-07-24T11:18:31.186Z,61760
2017-07-24T11:19:30.875Z,58976
2017-07-24T11:20:30.866Z,78784
2017-07-24T11:21:31.149Z,91872
2017-07-24T11:22:31.133Z,81504
2017-07-24T11:23:30.528Z,32896
2017-07-24T11:24:31.105Z,27136
2017-07-24T11:25:31.187Z,25184
2017-07-24T11:26:31.301Z,24704
2017-07-24T11:27:31.773Z,24480
2017-07-24T11:28:31.266Z,24800
2017-07-24T11:29:31.192Z,25344
2017-07-24T11:30:31.014Z,25152
2017-07-24T11:31:30.568Z,24608
2017-07-24T11:32:31.263Z,24128
2017-07-24T11:33:30.899Z,23456
2017-07-24T11:34:30.674Z,22464
2017-07-24T11:35:30.954Z,21440
2017-07-24T11:36:30.949Z,20288
2017-07-24T11:37:30.926Z,19040
2017-07-24T11:38:30.914Z,18432
2017-07-24T11:39:30.609Z,18656
2017-07-24T11:40:30.889Z,19296
2017-07-24T11:41:30.570Z,20032
2017-07-24T11:42:30.564Z,20512
2017-07-24T11:43:30.840Z,20640
2017-07-24T11:44:30.816Z,20480
2017-07-24T11:45:30.810Z,20384
2017-07-24T11:46:30.493Z,20512
2017-07-24T11:47:30.480Z,20800
2017-07-24T11:48:30.761Z,20832
2017-07-24T11:49:30.150Z,20576
2017-07-24T11:50:30.731Z,20032
2017-07-24T11:51:30.708Z,19424
2017-07-24T11:52:30.704Z,18624
2017-07-24T11:53:30.382Z,17952
2017-07-24T11:54:30.364Z,17536
2017-07-24T11:55:30.504Z,16772
2017-07-24T11:56:30.632Z,15944
2017-07-24T11:57:30.025Z,15020
2017-07-24T11:58:30.311Z,14212
2017-07-24T11:59:30.583Z,13720
2017-07-24T12:00:30.558Z,13340
2017-07-24T12:01:30.547Z,12924
2017-07-24T12:02:30.233Z,12532
2017-07-24T12:03:30.516Z,12004
2017-07-24T12:04:30.512Z,11388
2017-07-24T12:05:30.487Z,10784
2017-07-24T12:06:30.468Z,10292
2017-07-24T12:07:30.441Z,9764
2017-07-24T12:08:30.132Z,9216
2017-07-24T12:09:30.404Z,8828
2017-07-24T12:10:30.102Z,8568
2017-07-24T12:11:30.371Z,8520
2017-07-24T12:12:30.359Z,8748
2017-07-24T12:13:30.335Z,8816
2017-07-24T12:14:30.319Z,8944
2017-07-24T12:15:30.303Z,9092
2017-07-24T12:16:30.286Z,9080
2017-07-24T12:17:30.267Z,8968
2017-07-24T12:18:30.244Z,8636
2017-07-24T12:19:30.234Z,8396
2017-07-24T12:20:30.203Z,7776
2017-07-24T12:21:30.189Z,6792
2017-07-24T12:22:30.164Z,5672
2017-07-24T12:23:29.865Z,4956
2017-07-24T12:24:29.836Z,4576
2017-07-24T12:25:30.459Z,4364
2017-07-24T12:26:30.739Z,4288
2017-07-24T12:27:30.075Z,4192
2017-07-24T12:28:30.053Z,4044
2017-07-24T12:29:29.739Z,3856
2017-07-24T12:30:30.023Z,3648
2017-07-24T12:31:29.707Z,3512
2017-07-24T12:32:29.685Z,3460
2017-07-24T12:33:29.960Z,3600
2017-07-24T12:34:29.937Z,3860
2017-07-24T12:35:29.924Z,4156
2017-07-24T12:36:29.908Z,4316
2017-07-24T12:37:29.588Z,4284
2017-07-24T12:38:29.567Z,4228
2017-07-24T12:39:29.844Z,4404
2017-07-24T12:40:29.530Z,4668
2017-07-24T12:41:29.810Z,5284
2017-07-24T12:42:29.786Z,5812
2017-07-24T12:43:29.794Z,6432
2017-07-24T12:44:29.799Z,7240
2017-07-24T12:45:29.732Z,7836
2017-07-24T12:46:29.710Z,8200
2017-07-24T12:47:29.695Z,8468
2017-07-24T12:48:29.667Z,8968
2017-07-24T12:49:29.598Z,9128
2017-07-24T12:50:29.661Z,8996
2017-07-24T12:51:29.612Z,8524
2017-07-24T12:52:29.588Z,7844
2017-07-24T12:53:29.594Z,7296
2017-07-24T12:54:29.557Z,7448
2017-07-24T12:55:29.530Z,8028
2017-07-24T12:56:29.509Z,8964
2017-07-24T12:57:29.238Z,9976
2017-07-24T12:58:29.476Z,11148
2017-07-24T12:59:29.147Z,11232
2017-07-24T13:00:29.130Z,10960
2017-07-24T13:01:29.408Z,10904
2017-07-24T13:02:29.389Z,10944
2017-07-24T13:03:29.365Z,11068
2017-07-24T13:04:29.046Z,11392
2017-07-24T13:05:29.023Z,11892
2017-07-24T13:06:29.311Z,12340
2017-07-24T13:07:28.987Z,12792
2017-07-24T13:08:29.264Z,13496
2017-07-24T13:09:29.240Z,14224
2017-07-24T13:10:29.275Z,14944
2017-07-24T13:11:29.555Z,15728
2017-07-24T13:12:29.172Z,16444
2017-07-24T13:13:29.161Z,17504
2017-07-24T13:14:29.134Z,18336
2017-07-24T13:15:29.112Z,19136
2017-07-24T13:16:28.500Z,19872
2017-07-24T13:17:29.073Z,20672
2017-07-24T13:18:28.756Z,21408
2017-07-24T13:19:28.742Z,21952
2017-07-24T13:20:28.732Z,22368
2017-07-24T13:21:28.699Z,22720
2017-07-24T13:22:28.980Z,23072
2017-07-24T13:23:28.359Z,23296
2017-07-24T13:24:28.643Z,23520
2017-07-24T13:25:28.021Z,23904
2017-07-24T13:26:28.598Z,24480
2017-07-24T13:27:28.874Z,25280
2017-07-24T13:28:28.928Z,26112
2017-07-24T13:29:28.836Z,26976
2017-07-24T13:30:28.860Z,27840
2017-07-24T13:31:28.796Z,28544
2017-07-24T13:32:28.780Z,29280